Time;durP1;ratioP1;P1;durP2;ratioP2;P2;SDS_P1;SDS_P2;PMS_P1;PMS_P2;Temp;Humidity;BMP_temperature;BMP_pressure;BME280_temperature;BME280_humidity;BME280_pressure;Samples;Min_cycle;Max_cycle;Signal;HPM_P1;HPM_P2
2023/07/14 00:01:50;;;;;;;6.35;5.60;;;;;;;16.42;92.72;101176.91;6110130;23;20018;-70
2023/07/14 00:04:31;;;;;;;5.78;5.45;;;;;;;16.41;92.81;101177.84;6113111;23;20573;-70
2023/07/14 00:06:58;;;;;;;5.80;5.30;;;;;;;16.37;92.71;101189.59;6085876;23;20590;-70
2023/07/14 00:09:28;;;;;;;5.90;5.50;;;;;;;15.00;92.34;100964.16;6113470;23;20485;-69
2023/07/14 00:11:55;;;;;;;5.63;5.32;;;;;;;16.06;92.86;101139.59;6088322;23;20044;-69
2023/07/14 00:14:21;;;;;;;5.78;5.47;;;;;;;16.07;93.69;101141.28;6112016;23;20025;-69
2023/07/14 00:16:48;;;;;;;5.70;5.30;;;;;;;16.16;94.31;101171.59;6094563;23;20960;-69
2023/07/14 00:19:17;;;;;;;5.85;5.30;;;;;;;16.08;94.74;101173.91;6113754;23;20022;-69
2023/07/14 00:21:46;;;;;;;6.05;5.55;;;;;;;15.97;95.79;101171.13;6086583;23;20425;-70
2023/07/14 00:24:18;;;;;;;5.57;5.28;;;;;;;15.90;96.58;101181.28;6116350;23;20021;-70
2023/07/14 00:26:47;;;;;;;6.10;5.70;;;;;;;15.84;97.44;101190.50;6116436;23;20017;-70
2023/07/14 00:29:26;;;;;;;5.55;5.25;;;;;;;15.82;97.59;101195.03;6111760;23;20059;-70
2023/07/14 00:31:53;;;;;;;6.13;5.72;;;;;;;14.89;97.58;101043.28;6082841;23;20027;-69
2023/07/14 00:34:21;;;;;;;5.70;5.30;;;;;;;15.83;97.46;101196.72;6115426;23;20037;-71
2023/07/14 00:36:47;;;;;;;5.60;5.20;;;;;;;15.84;96.93;101190.50;6088343;23;20018;-70
2023/07/14 00:39:14;;;;;;;5.97;5.57;;;;;;;15.42;97.74;101123.56;6116524;23;20104;-70
2023/07/14 00:41:41;;;;;;;6.13;5.60;;;;;;;15.46;97.76;101134.78;6100030;23;20025;-70
2023/07/14 00:44:13;;;;;;;5.75;5.40;;;;;;;15.31;98.22;101116.31;6116956;23;20044;-70
2023/07/14 00:46:40;;;;;;;6.37;5.80;;;;;;;15.67;97.73;101169.53;6111993;23;20041;-71
2023/07/14 00:49:12;;;;;;;6.30;5.90;;;;;;;15.82;96.91;101195.03;6116058;23;21539;-69
2023/07/14 00:51:39;;;;;;;5.80;5.50;;;;;;;15.58;97.77;101176.31;6087267;23;20025;-70
2023/07/14 00:54:23;;;;;;;6.25;5.85;;;;;;;15.61;97.59;101170.78;6119843;23;20028;-71
2023/07/14 00:56:51;;;;;;;6.10;5.70;;;;;;;15.84;98.62;101224.91;6113414;23;20058;-71
2023/07/14 00:59:18;;;;;;;6.03;5.50;;;;;;;15.90;98.63;101215.69;6114473;23;20071;-70
2023/07/14 01:02:20;;;;;;;6.35;5.75;;;;;;;15.95;98.44;101208.28;6121709;23;20104;-70
2023/07/14 01:05:01;;;;;;;6.40;5.72;;;;;;;16.01;98.21;101197.28;6093549;23;20030;-71
2023/07/14 01:07:37;;;;;;;6.07;5.57;;;;;;;16.11;96.71;101193.06;6088014;23;20726;-70
2023/07/14 01:10:08;;;;;;;6.07;5.68;;;;;;;15.91;97.20;101164.44;6114115;23;20039;-70
2023/07/14 01:12:38;;;;;;;6.32;5.82;;;;;;;16.12;96.91;101193.94;6113800;23;20115;-70
2023/07/14 01:15:07;;;;;;;6.32;5.78;;;;;;;16.13;97.75;101198.25;6117342;23;20013;-70
2023/07/14 01:17:36;;;;;;;5.60;5.30;;;;;;;16.05;98.13;101190.00;6091401;23;20092;-71
2023/07/14 01:20:08;;;;;;;6.25;5.72;;;;;;;16.15;98.44;101204.31;6117342;23;20025;-70
2023/07/14 01:22:37;;;;;;;5.93;5.60;;;;;;;16.14;97.60;101202.63;6110511;23;20097;-70
2023/07/14 01:25:33;;;;;;;6.20;5.70;;;;;;;16.14;98.03;101200.81;6094773;23;20245;-70
2023/07/14 01:28:03;;;;;;;5.93;5.53;;;;;;;16.17;97.98;101202.41;6113259;23;20334;-70
2023/07/14 01:30:30;;;;;;;5.80;5.50;;;;;;;16.20;97.33;101204.00;6111163;23;20608;-71
2023/07/14 01:32:57;;;;;;;5.80;5.40;;;;;;;15.99;97.10;101167.41;6114770;23;20049;-69
2023/07/14 01:35:32;;;;;;;6.05;5.60;;;;;;;16.08;96.51;101173.91;6091868;23;20018;-69
2023/07/14 01:37:58;;;;;;;6.00;5.60;;;;;;;16.31;95.24;101202.31;6117100;23;20048;-69
2023/07/14 01:40:26;;;;;;;6.75;5.80;;;;;;;16.34;94.32;101188.88;6118214;23;20472;-71
2023/07/14 01:42:56;;;;;;;5.28;5.03;;;;;;;16.21;93.98;101166.81;6113758;23;20087;-70
2023/07/14 01:45:27;;;;;;;5.53;5.22;;;;;;;16.30;94.00;101176.78;6110792;23;20031;-69
2023/07/14 01:47:57;;;;;;;6.05;5.53;;;;;;;16.07;93.66;101133.31;6112508;23;20764;-69
2023/07/14 01:50:30;;;;;;;6.07;5.60;;;;;;;16.34;94.25;101183.56;6085123;23;20022;-69
2023/07/14 01:53:03;;;;;;;5.70;5.30;;;;;;;16.32;94.05;101189.94;6113403;23;20025;-71
2023/07/14 01:55:32;;;;;;;;;;;;;;;16.31;94.04;101183.75;6092507;23;20022;-68
2023/07/14 01:58:03;;;;;;;6.00;5.70;;;;;;;16.16;94.48;101166.28;6096788;23;20403;-69
2023/07/14 02:00:32;;;;;;;5.93;5.55;;;;;;;16.17;94.42;101180.38;6115436;23;20088;-68
2023/07/14 02:03:00;;;;;;;6.15;5.75;;;;;;;16.07;95.20;101183.63;6112114;23;20029;-71
2023/07/14 02:05:31;;;;;;;6.00;5.40;;;;;;;16.01;96.15;101183.22;6062052;23;20021;-69
2023/07/14 02:08:02;;;;;;;5.43;5.13;;;;;;;15.65;96.45;101147.63;6111269;23;20022;-69
2023/07/14 02:10:29;;;;;;;5.85;5.45;;;;;;;15.78;97.31;101168.88;6086167;23;20535;-69
2023/07/14 02:12:55;;;;;;;5.50;5.20;;;;;;;15.86;97.46;101199.16;6112491;23;20088;-69
2023/07/14 02:15:27;;;;;;;5.50;5.20;;;;;;;15.35;97.84;101125.75;6112704;23;20098;-69
2023/07/14 02:17:54;;;;;;;5.53;5.20;;;;;;;15.77;98.72;101188.34;6108198;23;20057;-69
2023/07/14 02:20:43;;;;;;;6.20;5.70;;;;;;;15.73;98.32;101188.53;6089274;23;20042;-70
2023/07/14 02:23:13;;;;;;;5.80;5.47;;;;;;;15.02;98.67;101080.38;6112422;23;20709;-69
2023/07/14 02:25:46;;;;;;;5.55;5.25;;;;;;;15.74;98.74;101190.25;6078640;23;20032;-70
2023/07/14 02:28:14;;;;;;;5.47;5.18;;;;;;;15.74;98.07;101192.88;6116483;23;20037;-69
2023/07/14 02:30:45;;;;;;;6.30;5.90;;;;;;;15.20;97.91;101112.69;6113886;23;20025;-69
2023/07/14 02:33:36;;;;;;;5.60;5.10;;;;;;;15.65;98.45;101185.50;6108636;23;20059;-69
2023/07/14 02:36:22;;;;;;;5.90;5.50;;;;;;;15.56;98.91;101181.69;6108141;23;20018;-70
2023/07/14 02:38:48;;;;;;;5.75;5.45;;;;;;;15.11;99.77;101124.69;6112016;23;20125;-69
2023/07/14 02:41:38;;;;;;;5.75;5.40;;;;;;;15.29;100.00;101176.38;6070901;23;20589;-69
2023/07/14 02:44:07;;;;;;;5.50;5.20;;;;;;;15.23;100.00;101186.50;6111792;23;20271;-69
2023/07/14 02:46:42;;;;;;;5.80;5.40;;;;;;;14.73;100.00;101115.63;6085261;23;20018;-69
2023/07/14 02:49:09;;;;;;;5.80;5.38;;;;;;;15.08;100.00;101191.00;6112136;23;20028;-69
2023/07/14 02:51:36;;;;;;;5.80;5.38;;;;;;;14.67;100.00;101150.38;6109681;23;20021;-69
2023/07/14 02:54:04;;;;;;;5.60;5.30;;;;;;;14.81;100.00;101190.91;6114593;23;20049;-70
2023/07/14 02:56:31;;;;;;;6.50;6.00;;;;;;;14.94;100.00;101207.72;6110650;23;20017;-69
2023/07/14 02:58:58;;;;;;;5.43;5.10;;;;;;;14.61;100.00;101158.63;6089626;23;20025;-69
2023/07/14 03:01:25;;;;;;;6.05;5.60;;;;;;;14.89;100.00;101210.66;6114678;23;20022;-69
2023/07/14 03:03:53;;;;;;;5.43;5.03;;;;;;;14.27;100.00;101113.19;6089500;23;20714;-70
2023/07/14 03:06:20;;;;;;;5.85;5.55;;;;;;;14.86;100.00;101207.34;6084815;23;20027;-70
2023/07/14 03:08:46;;;;;;;5.68;5.32;;;;;;;14.81;100.00;101204.13;6113080;23;20037;-70
2023/07/14 03:11:13;;;;;;;5.63;5.30;;;;;;;14.26;100.00;101122.03;6116789;23;20022;-70
2023/07/14 03:13:40;;;;;;;5.88;5.47;;;;;;;14.74;100.00;101201.03;6113240;23;20048;-70
2023/07/14 03:16:07;;;;;;;6.00;4.93;;;;;;;13.53;100.00;101027.00;6116820;23;20557;-70
2023/07/14 03:18:33;;;;;;;6.30;5.70;;;;;;;14.56;100.00;101181.88;6088617;23;20565;-70
2023/07/14 03:21:02;;;;;;;6.25;5.75;;;;;;;14.67;100.00;101197.91;6109318;23;20068;-69
2023/07/14 03:23:29;;;;;;;9.32;5.68;;;;;;;14.33;100.00;101139.19;6116710;23;20502;-68
2023/07/14 03:26:02;;;;;;;5.50;5.20;;;;;;;14.62;100.00;101199.13;6083574;23;20036;-69
2023/07/14 03:28:29;;;;;;;6.03;5.60;;;;;;;14.61;100.00;101194.78;6112598;23;20693;-70
2023/07/14 03:30:56;;;;;;;5.95;5.65;;;;;;;14.33;100.00;101172.66;6109668;23;20045;-69
2023/07/14 03:33:23;;;;;;;6.53;6.03;;;;;;;14.50;100.00;101209.47;6112986;23;20048;-69
2023/07/14 03:35:50;;;;;;;6.00;5.60;;;;;;;14.04;100.00;101145.38;6111211;23;20033;-69
2023/07/14 03:38:17;;;;;;;5.80;5.40;;;;;;;14.43;100.00;101205.47;6115323;23;20041;-70
2023/07/14 03:40:44;;;;;;;16.35;5.75;;;;;;;14.41;100.00;101215.28;6108455;23;20479;-70
2023/07/14 03:43:10;;;;;;;5.25;4.95;;;;;;;14.36;100.00;101204.16;6089100;23;20502;-70
2023/07/14 03:45:37;;;;;;;6.25;5.85;;;;;;;14.34;100.00;101198.13;6022240;23;20428;-70
2023/07/14 03:48:05;;;;;;;5.45;5.15;;;;;;;14.35;100.00;101198.03;6111205;23;20036;-70
2023/07/14 03:50:34;;;;;;;5.80;5.40;;;;;;;13.52;100.00;101107.91;6113134;23;20499;-70
2023/07/14 03:53:00;;;;;;;5.68;5.15;;;;;;;14.32;100.00;101189.44;6111670;23;20210;-69
2023/07/14 03:55:28;;;;;;;5.30;4.90;;;;;;;14.47;100.00;101216.72;6113612;23;20029;-69
2023/07/14 03:57:55;;;;;;;5.60;5.30;;;;;;;14.48;100.00;101211.34;6109780;23;20069;-68
2023/07/14 04:00:26;;;;;;;5.50;5.10;;;;;;;14.12;100.00;101156.31;6060478;23;20033;-69
2023/07/14 04:02:56;;;;;;;5.50;5.10;;;;;;;14.00;100.00;101122.75;6109880;23;20088;-71
2023/07/14 04:05:22;;;;;;;5.80;5.30;;;;;;;14.05;100.00;101118.03;6111918;23;20030;-70
2023/07/14 04:07:49;;;;;;;6.05;5.55;;;;;;;14.03;100.00;101120.78;6086018;23;20515;-69
2023/07/14 04:10:17;;;;;;;5.50;5.20;;;;;;;13.54;100.00;101036.63;6109191;23;20582;-69
2023/07/14 04:12:48;;;;;;;6.30;5.80;;;;;;;14.45;100.00;101168.41;6110151;23;20033;-69
2023/07/14 04:15:14;;;;;;;5.47;5.18;;;;;;;14.38;100.00;101159.19;6116065;23;20045;-69
2023/07/14 04:17:41;;;;;;;5.93;5.50;;;;;;;14.38;100.00;101146.81;6084164;23;20049;-69
2023/07/14 04:20:08;;;;;;;5.30;5.00;;;;;;;14.54;100.00;101181.06;6115500;23;20025;-69
2023/07/14 04:22:37;;;;;;;5.90;5.50;;;;;;;14.66;100.00;101209.41;6087090;23;20025;-69
2023/07/14 04:25:03;;;;;;;5.35;5.05;;;;;;;14.32;100.00;101139.28;6112772;23;20573;-69
2023/07/14 04:27:30;;;;;;;5.30;5.00;;;;;;;14.42;100.00;101150.13;6105454;23;20031;-69
2023/07/14 04:29:58;;;;;;;5.95;5.55;;;;;;;14.03;100.00;101088.25;6117285;23;20026;-69
2023/07/14 04:32:26;;;;;;;5.57;5.25;;;;;;;14.79;100.00;101214.78;6083591;23;20037;-70
2023/07/14 04:34:53;;;;;;;6.18;5.50;;;;;;;14.58;100.00;101160.66;6110339;23;20053;-70
2023/07/14 04:37:19;;;;;;;5.75;5.45;;;;;;;14.84;100.00;101198.66;6110164;23;20029;-70
2023/07/14 04:39:45;;;;;;;5.93;5.53;;;;;;;14.41;100.00;101122.03;6107252;23;20025;-69
2023/07/14 04:42:12;;;;;;;5.53;5.22;;;;;;;14.74;100.00;101175.44;6111212;23;20027;-69
2023/07/14 04:44:39;;;;;;;7.35;5.88;;;;;;;14.98;100.00;101198.66;6108712;23;20100;-70
2023/07/14 04:47:06;;;;;;;5.97;5.50;;;;;;;14.49;100.00;101106.53;6111055;23;20022;-69
2023/07/14 04:49:33;;;;;;;6.43;5.68;;;;;;;14.91;100.00;101162.97;6087003;23;20032;-70
2023/07/14 04:52:00;;;;;;;5.32;5.03;;;;;;;15.04;100.00;101141.91;6114362;23;20017;-69
2023/07/14 04:54:27;;;;;;;5.75;5.35;;;;;;;15.74;100.00;101200.00;6083348;23;20100;-69
2023/07/14 04:56:53;;;;;;;7.32;5.03;;;;;;;16.13;100.00;101199.09;6113300;23;20013;-69
2023/07/14 04:59:20;;;;;;;5.53;5.22;;;;;;;16.68;100.00;101140.63;6059710;23;20706;-69
2023/07/14 05:01:46;;;;;;;6.50;6.05;;;;;;;18.26;92.16;101118.34;6087544;23;20027;-70
2023/07/14 05:04:13;;;;;;;5.80;5.50;;;;;;;19.42;82.62;101040.72;6088415;23;20010;-69
2023/07/14 05:06:40;;;;;;;6.28;5.88;;;;;;;19.62;76.82;100975.13;6111638;23;20017;-69
2023/07/14 05:09:07;;;;;;;6.07;5.68;;;;;;;19.05;74.47;100880.69;6088386;23;20037;-70
2023/07/14 05:11:34;;;;;;;6.50;5.90;;;;;;;19.13;75.41;100942.06;6116807;23;20052;-69
2023/07/14 05:14:00;;;;;;;5.75;5.35;;;;;;;18.82;76.06;100943.78;6116698;23;20026;-70
2023/07/14 05:16:27;;;;;;;6.43;6.03;;;;;;;17.99;77.43;100887.59;6111047;23;20571;-69
2023/07/14 05:18:53;;;;;;;6.97;6.22;;;;;;;17.44;79.49;100882.19;6116125;23;20034;-69
2023/07/14 05:21:20;;;;;;;6.15;5.75;;;;;;;17.47;80.98;100929.69;6094101;23;20025;-69
2023/07/14 05:23:46;;;;;;;6.25;5.88;;;;;;;17.45;81.83;100947.53;6112679;23;20042;-70
2023/07/14 05:26:13;;;;;;;5.97;5.68;;;;;;;17.39;82.63;100963.09;6109476;23;20029;-69
2023/07/14 05:28:40;;;;;;;6.22;5.70;;;;;;;17.58;83.66;101008.50;6115917;23;20049;-69
2023/07/14 05:31:08;;;;;;;6.45;5.85;;;;;;;17.51;84.39;101021.38;6117078;23;20044;-70
2023/07/14 05:33:34;;;;;;;6.63;6.03;;;;;;;17.45;84.63;101011.22;6114072;23;20091;-69
2023/07/14 05:36:01;;;;;;;6.18;5.78;;;;;;;17.53;84.97;101023.91;6110113;23;20052;-71
2023/07/14 05:38:29;;;;;;;7.13;5.60;;;;;;;17.41;84.97;100991.19;6112448;23;20001;-70
2023/07/14 05:40:56;;;;;;;7.68;5.60;;;;;;;17.61;85.12;101025.97;6116628;23;20037;-69
2023/07/14 05:43:27;;;;;;;6.05;5.65;;;;;;;17.71;85.08;101037.59;6095746;23;20029;-69
2023/07/14 05:45:54;;;;;;;6.05;5.45;;;;;;;18.36;84.40;101072.41;6116514;23;20060;-69
2023/07/14 05:48:21;;;;;;;6.18;5.68;;;;;;;19.32;79.67;101039.81;6118283;23;20049;-69
2023/07/14 05:50:48;;;;;;;6.70;6.28;;;;;;;20.24;73.89;100977.81;6113996;23;20412;-69
2023/07/14 05:53:17;;;;;;;6.40;5.80;;;;;;;21.24;67.25;100854.84;6114660;23;20479;-69
2023/07/14 05:55:44;;;;;;;7.05;5.80;;;;;;;21.57;65.34;100825.06;6114758;23;20526;-69
2023/07/14 05:58:10;;;;;;;6.80;6.15;;;;;;;22.08;63.92;100831.66;6092153;23;20092;-70
2023/07/14 06:00:38;;;;;;;6.88;6.40;;;;;;;22.00;61.17;100696.13;6114401;23;20083;-70
2023/07/14 06:03:10;;;;;;;6.22;5.70;;;;;;;22.23;62.34;100783.84;6113590;23;20021;-69
2023/07/14 06:05:37;;;;;;;6.65;6.25;;;;;;;22.73;59.34;100713.69;6114447;23;20396;-69
2023/07/14 06:08:03;;;;;;;6.60;6.00;;;;;;;22.85;58.69;100660.72;6113194;23;20013;-69
2023/07/14 06:10:32;;;;;;;6.28;5.75;;;;;;;23.61;57.63;100709.84;6114402;23;20033;-69
2023/07/14 06:12:58;;;;;;;6.50;6.10;;;;;;;23.67;55.37;100596.66;6083134;23;20014;-69
2023/07/14 06:15:25;;;;;;;6.15;5.75;;;;;;;24.43;54.53;100632.09;6116534;23;20101;-69
2023/07/14 06:17:51;;;;;;;6.13;5.82;;;;;;;24.79;53.33;100596.75;6081935;23;20030;-69
2023/07/14 06:20:18;;;;;;;6.30;5.90;;;;;;;24.40;53.52;100566.22;6116120;23;20022;-69
2023/07/14 06:22:44;;;;;;;6.60;6.10;;;;;;;24.21;51.54;100449.44;6110375;23;20021;-70
2023/07/14 06:25:12;;;;;;;7.13;6.60;;;;;;;23.75;53.38;100523.47;6115942;23;20044;-70
2023/07/14 06:27:38;;;;;;;6.60;6.20;;;;;;;23.39;53.40;100521.16;6082924;23;20089;-70
2023/07/14 06:30:06;;;;;;;7.30;6.07;;;;;;;22.62;54.67;100492.78;6114391;23;20017;-70
2023/07/14 06:32:32;;;;;;;7.82;6.00;;;;;;;21.97;57.67;100594.03;6084105;23;20014;-69
2023/07/14 06:34:59;;;;;;;6.97;6.32;;;;;;;21.57;58.07;100590.06;6114587;23;20029;-69
2023/07/14 06:37:25;;;;;;;6.75;6.25;;;;;;;20.99;59.96;100589.50;6082957;23;20025;-69
2023/07/14 06:39:53;;;;;;;6.05;5.75;;;;;;;20.74;60.96;100635.56;6100647;23;20066;-69
2023/07/14 06:42:19;;;;;;;7.18;5.85;;;;;;;21.37;60.99;100720.19;6112592;23;20536;-69
2023/07/14 06:44:46;;;;;;;6.57;6.18;;;;;;;21.49;60.22;100716.38;6104439;23;20033;-69
2023/07/14 06:47:14;;;;;;;7.10;6.25;;;;;;;21.33;60.03;100666.28;6115532;23;20082;-69
2023/07/14 06:49:41;;;;;;;6.55;6.05;;;;;;;21.31;60.17;100676.25;6110906;23;20030;-69
2023/07/14 06:52:09;;;;;;;6.07;5.68;;;;;;;21.64;61.02;100749.56;6084298;23;20057;-70
2023/07/14 06:54:35;;;;;;;6.25;5.75;;;;;;;21.85;58.91;100681.63;6084754;23;20335;-69
2023/07/14 06:57:04;;;;;;;6.47;6.07;;;;;;;21.78;58.49;100672.56;6115039;23;20091;-70
2023/07/14 06:59:30;;;;;;;6.32;5.82;;;;;;;22.05;58.14;100693.84;6085066;23;20041;-69
2023/07/14 07:01:57;;;;;;;6.25;5.85;;;;;;;22.22;56.84;100665.38;6116490;23;20462;-69
2023/07/14 07:04:23;;;;;;;5.90;5.60;;;;;;;22.32;56.42;100665.31;6086758;23;20033;-70
2023/07/14 07:06:52;;;;;;;6.15;5.82;;;;;;;22.32;56.34;100637.75;6109456;23;20425;-70
2023/07/14 07:09:19;;;;;;;6.60;6.10;;;;;;;22.52;56.71;100683.81;6089726;23;20227;-69
2023/07/14 07:11:46;;;;;;;6.53;6.13;;;;;;;22.44;54.70;100566.94;6112985;23;20937;-70
2023/07/14 07:14:12;;;;;;;6.20;5.80;;;;;;;21.73;56.38;100565.31;6113636;23;20018;-69
2023/07/14 07:16:39;;;;;;;6.68;5.82;;;;;;;22.26;56.06;100645.38;6066462;23;20021;-68
2023/07/14 07:19:05;;;;;;;5.90;5.60;;;;;;;22.05;55.96;100594.09;6128274;23;20112;-68
2023/07/14 07:21:32;;;;;;;6.25;5.85;;;;;;;22.58;56.51;100699.25;6116417;23;20100;-67
2023/07/14 07:23:59;;;;;;;6.68;5.80;;;;;;;22.80;54.15;100614.91;6114584;23;20025;-70
2023/07/14 07:26:25;;;;;;;6.93;5.85;;;;;;;22.92;53.99;100616.28;6084903;23;20455;-69
2023/07/14 07:28:52;;;;;;;6.25;5.88;;;;;;;22.75;54.16;100577.91;6107967;23;20029;-69
2023/07/14 07:31:21;;;;;;;6.18;5.72;;;;;;;22.66;55.42;100643.94;6114633;23;20033;-68
2023/07/14 07:33:50;;;;;;;6.38;5.88;;;;;;;22.44;54.70;100597.19;6106242;23;20096;-69
2023/07/14 07:36:16;;;;;;;6.05;5.55;;;;;;;22.49;55.03;100591.34;6110367;23;20018;-68
2023/07/14 07:38:51;;;;;;;6.55;6.10;;;;;;;22.79;54.54;100626.59;6107143;23;20018;-69
2023/07/14 07:41:21;;;;;;;6.25;5.85;;;;;;;22.87;53.69;100600.72;6111299;23;20017;-68
2023/07/14 07:43:48;;;;;;;6.40;6.00;;;;;;;22.94;54.50;100658.94;6110678;23;20483;-68
2023/07/14 07:46:14;;;;;;;6.43;5.90;;;;;;;22.81;55.36;100651.34;6111908;23;20009;-69
2023/07/14 07:48:44;;;;;;;6.68;6.13;;;;;;;22.66;54.75;100603.81;6109191;23;20055;-69
2023/07/14 07:51:10;;;;;;;6.13;5.72;;;;;;;22.59;54.73;100607.28;6109389;23;20006;-70
2023/07/14 07:53:37;;;;;;;6.00;5.60;;;;;;;23.17;54.01;100649.31;6089908;23;20075;-69
2023/07/14 07:56:03;;;;;;;6.03;5.55;;;;;;;23.28;52.75;100586.59;6110428;23;20028;-70
2023/07/14 07:58:30;;;;;;;6.28;5.88;;;;;;;23.54;51.17;100524.84;6094649;23;20033;-70
2023/07/14 08:01:02;;;;;;;5.78;5.47;;;;;;;22.82;52.29;100493.31;6108011;23;20144;-69
2023/07/14 08:03:29;;;;;;;;;;;;;;;23.02;52.45;100538.56;6111956;23;20085;-69
2023/07/14 08:06:00;;;;;;;5.90;5.60;;;;;;;22.90;53.49;100562.91;6086051;23;19924;-69
2023/07/14 08:08:27;;;;;;;6.75;6.03;;;;;;;23.14;52.58;100585.41;6089601;23;20101;-71
2023/07/14 08:10:57;;;;;;;7.07;6.03;;;;;;;22.97;52.68;100530.13;6104798;23;20054;-74
2023/07/14 08:13:25;;;;;;;6.43;5.90;;;;;;;23.26;50.80;100511.78;6110694;23;20022;-69
2023/07/14 08:15:53;;;;;;;7.00;5.63;;;;;;;23.36;52.41;100572.41;6090232;23;20009;-69
2023/07/14 08:18:22;;;;;;;7.60;5.90;;;;;;;23.66;50.76;100554.81;6113136;23;20085;-69
2023/07/14 08:20:52;;;;;;;6.10;5.70;;;;;;;23.89;49.94;100537.06;6106320;23;20043;-69
2023/07/14 08:23:21;;;;;;;6.18;5.78;;;;;;;23.49;49.98;100463.75;6111815;23;20088;-68
2023/07/14 08:25:56;;;;;;;6.45;5.95;;;;;;;23.54;49.16;100431.09;6110523;23;20060;-69
2023/07/14 08:28:24;;;;;;;6.45;5.82;;;;;;;24.00;49.19;100482.22;6057169;23;20108;-69
2023/07/14 08:31:00;;;;;;;6.10;5.80;;;;;;;24.16;49.34;100526.91;6110749;23;20155;-69
2023/07/14 08:33:27;;;;;;;6.90;6.30;;;;;;;24.34;50.11;100588.38;6064344;23;20028;-71
2023/07/14 08:36:00;;;;;;;6.85;6.20;;;;;;;24.92;48.09;100519.19;6113065;23;20104;-69
2023/07/14 08:38:28;;;;;;;7.68;6.22;;;;;;;25.25;48.15;100602.22;6112777;23;20081;-70
2023/07/14 08:41:16;;;;;;;6.05;5.72;;;;;;;25.16;47.51;100544.16;6115702;23;20029;-69
2023/07/14 08:43:58;;;;;;;6.70;6.30;;;;;;;25.27;47.08;100523.13;6073461;23;20029;-69
2023/07/14 08:46:52;;;;;;;6.18;5.82;;;;;;;25.52;47.20;100547.13;6115720;23;20021;-70
2023/07/14 08:49:28;;;;;;;6.70;6.15;;;;;;;25.27;46.54;100452.47;6113827;23;20037;-69
2023/07/14 08:52:07;;;;;;;6.95;6.45;;;;;;;25.41;46.10;100469.63;6093309;23;20021;-72
2023/07/14 08:54:57;;;;;;;6.40;6.00;;;;;;;25.58;46.51;100515.97;6088192;23;20031;-69
2023/07/14 08:57:27;;;;;;;7.32;5.93;;;;;;;25.43;46.35;100483.72;6113527;23;20119;-69
2023/07/14 09:00:00;;;;;;;6.40;5.97;;;;;;;25.28;46.84;100497.94;6087452;23;20092;-70
2023/07/14 09:02:39;;;;;;;6.70;6.20;;;;;;;25.22;46.34;100446.81;6113069;23;20041;-72
2023/07/14 09:05:14;;;;;;;6.30;5.90;;;;;;;25.32;46.33;100476.94;6116518;23;20029;-71
2023/07/14 09:07:40;;;;;;;6.28;5.88;;;;;;;25.39;45.94;100480.53;6113807;23;20032;-69
2023/07/14 09:10:12;;;;;;;6.18;5.78;;;;;;;25.51;46.02;100501.59;6117664;23;20032;-69
2023/07/14 09:12:58;;;;;;;6.60;6.10;;;;;;;25.87;44.97;100459.53;6109760;23;20124;-69
2023/07/14 09:15:26;;;;;;;6.60;6.10;;;;;;;25.59;45.05;100424.41;6113732;23;20026;-69
2023/07/14 09:18:21;;;;;;;6.20;5.90;;;;;;;26.03;44.93;100492.69;6112799;23;20542;-71
2023/07/14 09:21:22;;;;;;;6.07;5.72;;;;;;;25.89;45.56;100507.75;6111275;23;20046;-70
2023/07/14 09:24:01;;;;;;;6.70;6.20;;;;;;;26.02;44.63;100451.50;6115079;23;20576;-69
2023/07/14 09:26:35;;;;;;;6.13;5.82;;;;;;;25.83;44.64;100419.78;6114191;23;20017;-69
2023/07/14 09:29:12;;;;;;;6.07;5.68;;;;;;;26.66;44.65;100574.66;6114889;23;20026;-69
2023/07/14 09:31:54;;;;;;;6.13;5.72;;;;;;;27.05;43.05;100505.25;6107760;23;20037;-69
2023/07/14 09:34:35;;;;;;;6.03;5.63;;;;;;;26.89;41.79;100378.97;6116262;23;20029;-70
2023/07/14 09:37:15;;;;;;;6.60;5.95;;;;;;;26.93;42.98;100455.63;6115495;23;20068;-70
2023/07/14 09:39:45;;;;;;;6.47;5.97;;;;;;;26.73;42.05;100366.59;6090988;23;20472;-70
2023/07/14 09:42:25;;;;;;;6.20;5.80;;;;;;;26.84;42.57;100449.53;6091369;23;20021;-69
2023/07/14 09:45:00;;;;;;;6.43;6.03;;;;;;;26.86;42.48;100436.69;6112279;23;20022;-71
2023/07/14 09:47:29;;;;;;;6.53;6.13;;;;;;;26.58;42.64;100394.44;6088963;23;20049;-69
2023/07/14 09:49:57;;;;;;;6.32;5.93;;;;;;;26.72;41.21;100351.47;6114876;23;20029;-72
2023/07/14 09:52:27;;;;;;;6.85;6.25;;;;;;;26.70;41.33;100353.53;6113592;23;20117;-71
2023/07/14 09:55:00;;;;;;;6.53;6.07;;;;;;;26.97;41.11;100386.88;6116233;23;20049;-68
2023/07/14 09:57:30;;;;;;;6.68;6.18;;;;;;;27.18;40.88;100386.84;6112872;23;20512;-70
2023/07/14 10:00:22;;;;;;;6.50;6.15;;;;;;;27.23;41.45;100403.28;6094344;23;20409;-69
2023/07/14 10:02:50;;;;;;;7.03;6.53;;;;;;;27.36;40.93;100415.16;6111614;23;20097;-68
2023/07/14 10:05:30;;;;;;;6.70;6.30;;;;;;;27.27;40.77;100405.59;6114172;23;20038;-69
2023/07/14 10:07:56;;;;;;;6.53;5.93;;;;;;;27.16;40.17;100364.66;6114029;23;20121;-69
2023/07/14 10:10:26;;;;;;;6.43;5.95;;;;;;;27.26;40.56;100426.28;6106535;23;20100;-69
2023/07/14 10:12:53;;;;;;;6.50;6.10;;;;;;;27.45;40.99;100449.03;6110350;23;20036;-70
2023/07/14 10:15:31;;;;;;;6.53;6.03;;;;;;;27.65;39.00;100384.44;6117295;23;20029;-71
2023/07/14 10:18:15;;;;;;;6.50;6.10;;;;;;;27.71;40.02;100413.31;6112968;23;20031;-68
2023/07/14 10:20:58;;;;;;;6.82;6.38;;;;;;;27.93;39.79;100454.53;6110206;23;20542;-68
2023/07/14 10:23:25;;;;;;;6.15;5.82;;;;;;;27.64;38.65;100309.97;6065859;23;20092;-71
2023/07/14 10:25:53;;;;;;;6.65;6.28;;;;;;;28.09;37.52;100366.19;6111616;23;20084;-69
2023/07/14 10:28:24;;;;;;;6.50;5.90;;;;;;;27.95;38.46;100384.19;6091031;23;20106;-68
2023/07/14 10:31:05;;;;;;;6.75;6.15;;;;;;;28.30;38.26;100438.06;6111693;23;20504;-69
2023/07/14 10:34:02;;;;;;;6.30;5.80;;;;;;;28.39;38.86;100461.16;6111277;23;20035;-69
2023/07/14 10:36:37;;;;;;;6.55;6.13;;;;;;;28.13;38.34;100389.84;6112810;23;20022;-69
2023/07/14 10:39:16;;;;;;;6.10;5.80;;;;;;;28.25;37.70;100342.34;6115295;23;20096;-69
2023/07/14 10:41:47;;;;;;;6.45;6.05;;;;;;;28.50;37.77;100414.66;6114620;23;20022;-70
2023/07/14 10:44:28;;;;;;;6.47;6.07;;;;;;;28.55;36.89;100378.97;6109916;23;20433;-70
2023/07/14 10:47:02;;;;;;;6.68;6.28;;;;;;;28.57;37.02;100387.72;6112112;23;20514;-71
2023/07/14 10:49:35;;;;;;;6.45;6.05;;;;;;;28.56;37.91;100435.44;6114078;23;20021;-68
2023/07/14 10:52:08;;;;;;;6.80;6.30;;;;;;;28.29;37.64;100350.88;6113564;23;20077;-69
2023/07/14 10:54:45;;;;;;;6.40;6.00;;;;;;;28.81;37.90;100465.41;6114168;23;20178;-68
2023/07/14 10:57:42;;;;;;;6.70;6.20;;;;;;;29.02;36.25;100393.31;6087257;23;20017;-68
2023/07/14 11:00:24;;;;;;;6.85;6.30;;;;;;;28.86;35.88;100358.63;6112490;23;20029;-70
2023/07/14 11:02:58;;;;;;;6.50;6.10;;;;;;;28.09;35.99;100250.19;6107585;23;20081;-69
2023/07/14 11:05:27;;;;;;;6.47;5.97;;;;;;;28.00;36.72;100314.28;6085931;23;20082;-69
2023/07/14 11:07:54;;;;;;;6.00;5.68;;;;;;;28.01;37.57;100375.31;6112336;23;20025;-69
2023/07/14 11:10:31;;;;;;;5.85;5.55;;;;;;;28.44;35.23;100291.28;6113546;23;20077;-69
2023/07/14 11:13:32;;;;;;;6.10;5.70;;;;;;;28.22;35.89;100307.66;6109046;23;20030;-68
2023/07/14 11:16:09;;;;;;;6.25;5.85;;;;;;;28.58;33.75;100232.75;6114330;23;20496;-69
2023/07/14 11:18:59;;;;;;;10.13;6.10;;;;;;;28.62;34.19;100250.19;6078428;23;20698;-70
2023/07/14 11:21:39;;;;;;;7.85;6.10;;;;;;;28.89;33.54;100258.28;6083520;23;20046;-69
2023/07/14 11:24:45;;;;;;;5.93;5.53;;;;;;;28.82;33.56;100266.38;6085153;23;20085;-69
2023/07/14 11:27:34;;;;;;;6.63;6.03;;;;;;;29.03;32.72;100238.28;6062488;23;20017;-69
2023/07/14 11:30:06;;;;;;;6.40;6.00;;;;;;;28.68;33.47;100235.84;6114669;23;20626;-68
2023/07/14 11:33:07;;;;;;;6.43;5.82;;;;;;;28.37;32.94;100196.00;6094593;23;20611;-68
2023/07/14 11:35:41;;;;;;;6.47;6.05;;;;;;;28.56;34.20;100251.84;6101733;23;20029;-69
2023/07/14 11:38:23;;;;;;;6.10;5.70;;;;;;;28.61;34.13;100305.25;6110584;23;20624;-69
2023/07/14 11:40:52;;;;;;;;;;;;;;;28.97;33.67;100293.16;6108522;23;20021;-68
2023/07/14 11:43:24;;;;;;;6.50;6.10;;;;;;;29.40;32.78;100285.34;6111756;23;19906;-69